sensor_id;sensor_type;location;lat;lon;timestamp;pressure;altitude;pressure_sealevel;temperature;humidity
63399;BME280;49533;-34.520;150.798;2023-02-12T00:01:16;99482.00;;;23.77;61.93
63399;BME280;49533;-34.520;150.798;2023-02-12T00:03:44;99478.06;;;23.75;61.59
63399;BME280;49533;-34.520;150.798;2023-02-12T00:06:11;99478.13;;;23.71;61.32
63399;BME280;49533;-34.520;150.798;2023-02-12T00:08:39;99476.19;;;23.68;61.43
63399;BME280;49533;-34.520;150.798;2023-02-12T00:11:09;99469.44;;;23.69;61.35
63399;BME280;49533;-34.520;150.798;2023-02-12T00:13:37;99472.19;;;23.73;61.42
63399;BME280;49533;-34.520;150.798;2023-02-12T00:16:06;99478.03;;;23.78;61.54
63399;BME280;49533;-34.520;150.798;2023-02-12T00:18:34;99482.38;;;23.79;61.26
63399;BME280;49533;-34.520;150.798;2023-02-12T00:21:02;99477.25;;;23.78;61.35
63399;BME280;49533;-34.520;150.798;2023-02-12T00:23:29;99482.81;;;23.78;61.48
63399;BME280;49533;-34.520;150.798;2023-02-12T00:25:56;99484.00;;;23.77;61.56
63399;BME280;49533;-34.520;150.798;2023-02-12T00:28:24;99482.81;;;23.78;61.58
63399;BME280;49533;-34.520;150.798;2023-02-12T00:30:51;99479.59;;;23.79;61.71
63399;BME280;49533;-34.520;150.798;2023-02-12T00:33:19;99472.84;;;23.80;61.40
63399;BME280;49533;-34.520;150.798;2023-02-12T00:35:55;99480.31;;;23.83;61.31
63399;BME280;49533;-34.520;150.798;2023-02-12T00:38:22;99479.97;;;23.81;61.29
63399;BME280;49533;-34.520;150.798;2023-02-12T00:40:49;99494.19;;;23.83;61.28
63399;BME280;49533;-34.520;150.798;2023-02-12T00:43:17;99491.78;;;23.85;61.35
63399;BME280;49533;-34.520;150.798;2023-02-12T00:45:45;99486.25;;;23.85;61.22
63399;BME280;49533;-34.520;150.798;2023-02-12T00:48:13;99488.94;;;23.89;61.20
63399;BME280;49533;-34.520;150.798;2023-02-12T00:50:43;99482.53;;;23.92;61.31
63399;BME280;49533;-34.520;150.798;2023-02-12T00:53:10;99486.47;;;23.95;61.28
63399;BME280;49533;-34.520;150.798;2023-02-12T00:55:37;99487.19;;;23.99;61.63
63399;BME280;49533;-34.520;150.798;2023-02-12T00:58:04;99487.56;;;24.01;61.79
63399;BME280;49533;-34.520;150.798;2023-02-12T01:00:31;99481.56;;;24.02;61.63
63399;BME280;49533;-34.520;150.798;2023-02-12T01:02:58;99478.38;;;24.04;61.72
63399;BME280;49533;-34.520;150.798;2023-02-12T01:05:26;99499.72;;;24.07;61.47
63399;BME280;49533;-34.520;150.798;2023-02-12T01:07:54;99493.31;;;24.10;61.21
63399;BME280;49533;-34.520;150.798;2023-02-12T01:10:21;99486.59;;;24.11;61.24
63399;BME280;49533;-34.520;150.798;2023-02-12T01:12:49;99495.25;;;24.13;61.29
63399;BME280;49533;-34.520;150.798;2023-02-12T01:15:17;99494.41;;;24.16;60.91
63399;BME280;49533;-34.520;150.798;2023-02-12T01:17:45;99483.25;;;24.20;60.53
63399;BME280;49533;-34.520;150.798;2023-02-12T01:20:15;99471.72;;;24.21;60.94
63399;BME280;49533;-34.520;150.798;2023-02-12T01:22:43;99486.38;;;24.22;60.45
63399;BME280;49533;-34.520;150.798;2023-02-12T01:25:10;99485.59;;;24.21;60.34
63399;BME280;49533;-34.520;150.798;2023-02-12T01:27:38;99479.59;;;24.23;60.60
63399;BME280;49533;-34.520;150.798;2023-02-12T01:30:07;99476.84;;;24.23;60.71
63399;BME280;49533;-34.520;150.798;2023-02-12T01:32:35;99470.41;;;24.26;60.85
63399;BME280;49533;-34.520;150.798;2023-02-12T01:35:03;99478.69;;;24.29;60.82
63399;BME280;49533;-34.520;150.798;2023-02-12T01:37:33;99471.06;;;24.34;60.88
63399;BME280;49533;-34.520;150.798;2023-02-12T01:40:01;99464.25;;;24.38;60.94
63399;BME280;49533;-34.520;150.798;2023-02-12T01:42:28;99468.94;;;24.41;61.01
63399;BME280;49533;-34.520;150.798;2023-02-12T01:45:40;99472.06;;;24.47;61.25
63399;BME280;49533;-34.520;150.798;2023-02-12T01:47:54;99467.28;;;24.47;61.51
63399;BME280;49533;-34.520;150.798;2023-02-12T01:50:22;99475.16;;;24.49;61.08
63399;BME280;49533;-34.520;150.798;2023-02-12T01:52:53;99461.63;;;24.51;60.95
63399;BME280;49533;-34.520;150.798;2023-02-12T01:55:23;99464.78;;;24.53;60.83
63399;BME280;49533;-34.520;150.798;2023-02-12T01:57:50;99460.34;;;24.56;60.73
63399;BME280;49533;-34.520;150.798;2023-02-12T02:00:21;99460.72;;;24.58;60.93
63399;BME280;49533;-34.520;150.798;2023-02-12T02:02:52;99461.00;;;24.63;60.75
63399;BME280;49533;-34.520;150.798;2023-02-12T02:05:30;99467.31;;;24.64;60.48
63399;BME280;49533;-34.520;150.798;2023-02-12T02:08:00;99467.69;;;24.66;60.11
63399;BME280;49533;-34.520;150.798;2023-02-12T02:10:29;99463.69;;;24.67;60.65
63399;BME280;49533;-34.520;150.798;2023-02-12T02:12:56;99465.97;;;24.72;60.83
63399;BME280;49533;-34.520;150.798;2023-02-12T02:15:36;99469.88;;;24.74;60.81
63399;BME280;49533;-34.520;150.798;2023-02-12T02:18:10;99473.88;;;24.73;60.18
63399;BME280;49533;-34.520;150.798;2023-02-12T02:21:09;99482.22;;;24.73;60.29
63399;BME280;49533;-34.520;150.798;2023-02-12T02:24:04;99490.19;;;24.71;60.26
63399;BME280;49533;-34.520;150.798;2023-02-12T02:32:43;99499.22;;;24.76;60.83
63399;BME280;49533;-34.520;150.798;2023-02-12T02:35:27;99505.16;;;24.78;60.71
63399;BME280;49533;-34.520;150.798;2023-02-12T02:38:17;99498.00;;;24.77;60.85
63399;BME280;49533;-34.520;150.798;2023-02-12T02:41:05;99501.56;;;24.77;60.91
63399;BME280;49533;-34.520;150.798;2023-02-12T02:43:46;99495.94;;;24.81;61.03
63399;BME280;49533;-34.520;150.798;2023-02-12T02:46:32;99503.41;;;24.84;61.09
63399;BME280;49533;-34.520;150.798;2023-02-12T02:49:07;99511.34;;;24.85;60.92
63399;BME280;49533;-34.520;150.798;2023-02-12T02:51:41;99513.31;;;24.85;60.86
63399;BME280;49533;-34.520;150.798;2023-02-12T02:54:23;99508.13;;;24.87;60.43
63399;BME280;49533;-34.520;150.798;2023-02-12T02:56:55;99509.34;;;24.86;60.48
63399;BME280;49533;-34.520;150.798;2023-02-12T02:59:31;99498.22;;;24.86;60.35
63399;BME280;49533;-34.520;150.798;2023-02-12T03:02:09;99505.34;;;24.87;60.56
63399;BME280;49533;-34.520;150.798;2023-02-12T03:04:42;99512.47;;;24.88;60.50
63399;BME280;49533;-34.520;150.798;2023-02-12T03:07:18;99505.59;;;24.92;60.40
63399;BME280;49533;-34.520;150.798;2023-02-12T03:09:58;99513.88;;;24.96;60.43
63399;BME280;49533;-34.520;150.798;2023-02-12T03:12:35;99519.81;;;24.98;59.66
63399;BME280;49533;-34.520;150.798;2023-02-12T03:15:08;99508.75;;;24.94;59.87
63399;BME280;49533;-34.520;150.798;2023-02-12T03:17:41;99523.50;;;24.91;59.31
63399;BME280;49533;-34.520;150.798;2023-02-12T03:20:20;99529.84;;;24.92;59.49
63399;BME280;49533;-34.520;150.798;2023-02-12T03:22:58;99537.03;;;24.89;59.38
63399;BME280;49533;-34.520;150.798;2023-02-12T03:25:34;99533.91;;;24.87;58.91
63399;BME280;49533;-34.520;150.798;2023-02-12T03:28:12;99548.09;;;24.93;59.75
63399;BME280;49533;-34.520;150.798;2023-02-12T03:33:40;99546.88;;;24.94;59.01
63399;BME280;49533;-34.520;150.798;2023-02-12T03:36:20;99544.94;;;24.91;59.46
63399;BME280;49533;-34.520;150.798;2023-02-12T03:38:54;99547.28;;;24.92;59.23
63399;BME280;49533;-34.520;150.798;2023-02-12T03:41:33;99544.44;;;24.96;59.75
63399;BME280;49533;-34.520;150.798;2023-02-12T03:44:17;99528.91;;;24.99;59.69
63399;BME280;49533;-34.520;150.798;2023-02-12T03:46:58;99548.78;;;24.97;59.80
63399;BME280;49533;-34.520;150.798;2023-02-12T03:49:37;99549.50;;;25.01;59.91
63399;BME280;49533;-34.520;150.798;2023-02-12T03:52:08;99536.81;;;25.00;59.21
63399;BME280;49533;-34.520;150.798;2023-02-12T03:54:35;99555.47;;;25.00;59.33
63399;BME280;49533;-34.520;150.798;2023-02-12T03:57:07;99555.41;;;25.03;59.18
63399;BME280;49533;-34.520;150.798;2023-02-12T03:59:37;99547.34;;;25.09;59.84
63399;BME280;49533;-34.520;150.798;2023-02-12T04:02:06;99554.56;;;25.06;59.66
63399;BME280;49533;-34.520;150.798;2023-02-12T04:04:33;99562.13;;;25.06;59.25
63399;BME280;49533;-34.520;150.798;2023-02-12T04:07:01;99588.25;;;25.08;59.55
63399;BME280;49533;-34.520;150.798;2023-02-12T04:09:29;99566.44;;;25.07;59.19
63399;BME280;49533;-34.520;150.798;2023-02-12T04:12:14;99570.78;;;25.08;59.62
63399;BME280;49533;-34.520;150.798;2023-02-12T04:15:05;99567.69;;;25.06;59.74
63399;BME280;49533;-34.520;150.798;2023-02-12T04:17:57;99581.91;;;25.08;59.91
63399;BME280;49533;-34.520;150.798;2023-02-12T04:20:46;99578.72;;;25.09;59.69
63399;BME280;49533;-34.520;150.798;2023-02-12T04:26:22;99571.09;;;25.13;59.74
63399;BME280;49533;-34.520;150.798;2023-02-12T04:32:03;99571.50;;;25.12;59.22
63399;BME280;49533;-34.520;150.798;2023-02-12T04:34:38;99573.50;;;25.11;59.52
63399;BME280;49533;-34.520;150.798;2023-02-12T04:37:30;99567.59;;;25.09;59.17
63399;BME280;49533;-34.520;150.798;2023-02-12T04:40:03;99563.59;;;25.10;59.35
63399;BME280;49533;-34.520;150.798;2023-02-12T04:42:41;99568.44;;;25.06;59.32
63399;BME280;49533;-34.520;150.798;2023-02-12T04:45:11;99563.25;;;25.08;58.82
63399;BME280;49533;-34.520;150.798;2023-02-12T04:47:39;99557.75;;;25.05;59.25
63399;BME280;49533;-34.520;150.798;2023-02-12T04:50:07;99568.97;;;25.01;59.09
63399;BME280;49533;-34.520;150.798;2023-02-12T04:52:34;99568.50;;;25.03;59.27
63399;BME280;49533;-34.520;150.798;2023-02-12T04:55:01;99561.41;;;25.02;58.96
63399;BME280;49533;-34.520;150.798;2023-02-12T04:57:28;99565.31;;;25.04;59.46
63399;BME280;49533;-34.520;150.798;2023-02-12T04:59:55;99560.97;;;25.03;59.43
63399;BME280;49533;-34.520;150.798;2023-02-12T05:02:22;99556.56;;;25.06;59.51
63399;BME280;49533;-34.520;150.798;2023-02-12T05:04:50;99569.66;;;25.05;58.99
63399;BME280;49533;-34.520;150.798;2023-02-12T05:07:17;99576.00;;;25.06;59.38
63399;BME280;49533;-34.520;150.798;2023-02-12T05:09:44;99571.72;;;25.01;59.38
63399;BME280;49533;-34.520;150.798;2023-02-12T05:12:11;99566.22;;;24.98;59.39
63399;BME280;49533;-34.520;150.798;2023-02-12T05:14:38;99574.50;;;25.01;59.21
63399;BME280;49533;-34.520;150.798;2023-02-12T05:17:06;99582.13;;;24.97;59.51
63399;BME280;49533;-34.520;150.798;2023-02-12T05:19:33;99584.22;;;24.93;58.94
63399;BME280;49533;-34.520;150.798;2023-02-12T05:22:00;99586.53;;;24.94;59.19
63399;BME280;49533;-34.520;150.798;2023-02-12T05:24:27;99586.13;;;24.96;59.44
63399;BME280;49533;-34.520;150.798;2023-02-12T05:26:54;99587.69;;;24.97;59.24
63399;BME280;49533;-34.520;150.798;2023-02-12T05:29:21;99581.34;;;24.97;59.00
63399;BME280;49533;-34.520;150.798;2023-02-12T05:31:51;99583.00;;;24.94;58.98
63399;BME280;49533;-34.520;150.798;2023-02-12T05:34:18;99588.19;;;24.92;59.89
63399;BME280;49533;-34.520;150.798;2023-02-12T05:36:46;99588.19;;;24.92;59.09
63399;BME280;49533;-34.520;150.798;2023-02-12T05:39:13;99592.59;;;24.89;59.52
63399;BME280;49533;-34.520;150.798;2023-02-12T05:41:40;99594.09;;;24.94;59.49
63399;BME280;49533;-34.520;150.798;2023-02-12T05:44:07;99588.53;;;24.94;60.02
63399;BME280;49533;-34.520;150.798;2023-02-12T05:46:37;99590.53;;;24.93;59.48
63399;BME280;49533;-34.520;150.798;2023-02-12T05:49:05;99588.53;;;24.94;59.89
63399;BME280;49533;-34.520;150.798;2023-02-12T05:51:33;99588.53;;;24.94;59.46
63399;BME280;49533;-34.520;150.798;2023-02-12T05:54:02;99592.53;;;24.93;59.68
63399;BME280;49533;-34.520;150.798;2023-02-12T05:56:32;99594.59;;;24.89;59.68
63399;BME280;49533;-34.520;150.798;2023-02-12T05:59:04;99604.81;;;24.95;59.60
63399;BME280;49533;-34.520;150.798;2023-02-12T06:01:34;99606.78;;;24.95;59.72
63399;BME280;49533;-34.520;150.798;2023-02-12T06:04:03;99610.34;;;24.95;59.81
63399;BME280;49533;-34.520;150.798;2023-02-12T06:06:32;99614.78;;;24.93;59.54
63399;BME280;49533;-34.520;150.798;2023-02-12T06:09:00;99615.97;;;24.92;59.46
63399;BME280;49533;-34.520;150.798;2023-02-12T06:11:27;99606.84;;;24.91;59.80
63399;BME280;49533;-34.520;150.798;2023-02-12T06:13:54;99618.75;;;24.92;59.61
63399;BME280;49533;-34.520;150.798;2023-02-12T06:16:25;99619.59;;;24.89;59.71
63399;BME280;49533;-34.520;150.798;2023-02-12T06:18:53;99622.78;;;24.87;59.90
63399;BME280;49533;-34.520;150.798;2023-02-12T06:21:25;99633.22;;;24.83;60.05
63399;BME280;49533;-34.520;150.798;2023-02-12T06:23:53;99634.97;;;24.73;59.50
63399;BME280;49533;-34.520;150.798;2023-02-12T06:26:20;99631.06;;;24.71;59.92
63399;BME280;49533;-34.520;150.798;2023-02-12T06:28:49;99623.13;;;24.69;59.68
63399;BME280;49533;-34.520;150.798;2023-02-12T06:31:23;99629.19;;;24.64;59.51
63399;BME280;49533;-34.520;150.798;2023-02-12T06:33:52;99622.94;;;24.60;59.80
63399;BME280;49533;-34.520;150.798;2023-02-12T06:36:20;99625.91;;;24.69;59.80
63399;BME280;49533;-34.520;150.798;2023-02-12T06:38:48;99620.97;;;24.81;59.51
63399;BME280;49533;-34.520;150.798;2023-02-12T06:41:15;99630.72;;;24.89;59.38
63399;BME280;49533;-34.520;150.798;2023-02-12T06:43:43;99633.78;;;24.94;59.26
63399;BME280;49533;-34.520;150.798;2023-02-12T06:46:10;99637.69;;;24.97;58.93
63399;BME280;49533;-34.520;150.798;2023-02-12T06:48:37;99631.28;;;25.00;59.15
63399;BME280;49533;-34.520;150.798;2023-02-12T06:51:08;99645.53;;;25.02;59.21
63399;BME280;49533;-34.520;150.798;2023-02-12T06:53:36;99646.31;;;25.03;59.41
63399;BME280;49533;-34.520;150.798;2023-02-12T06:56:05;99643.91;;;25.05;59.07
63399;BME280;49533;-34.520;150.798;2023-02-12T06:58:38;99644.69;;;25.05;58.84
63399;BME280;49533;-34.520;150.798;2023-02-12T07:01:14;99643.50;;;25.06;59.27
63399;BME280;49533;-34.520;150.798;2023-02-12T07:03:48;99650.25;;;25.05;59.24
63399;BME280;49533;-34.520;150.798;2023-02-12T07:06:15;99651.81;;;25.06;58.90
63399;BME280;49533;-34.520;150.798;2023-02-12T07:08:42;99662.94;;;25.06;59.30
63399;BME280;49533;-34.520;150.798;2023-02-12T07:11:10;99661.34;;;25.05;59.41
63399;BME280;49533;-34.520;150.798;2023-02-12T07:13:39;99674.41;;;25.08;59.21
63399;BME280;49533;-34.520;150.798;2023-02-12T07:16:10;99681.16;;;25.07;58.90
63399;BME280;49533;-34.520;150.798;2023-02-12T07:18:38;99665.28;;;25.08;59.19
63399;BME280;49533;-34.520;150.798;2023-02-12T07:21:07;99680.41;;;25.07;59.10
63399;BME280;49533;-34.520;150.798;2023-02-12T07:23:35;99680.41;;;25.07;59.05
63399;BME280;49533;-34.520;150.798;2023-02-12T07:26:06;99687.94;;;25.06;59.27
63399;BME280;49533;-34.520;150.798;2023-02-12T07:28:33;99691.94;;;25.05;58.74
63399;BME280;49533;-34.520;150.798;2023-02-12T07:31:21;99700.25;;;25.05;59.32
63399;BME280;49533;-34.520;150.798;2023-02-12T07:33:52;99696.28;;;25.06;59.09
63399;BME280;49533;-34.520;150.798;2023-02-12T07:36:20;99704.63;;;25.06;59.25
63399;BME280;49533;-34.520;150.798;2023-02-12T07:38:48;99700.25;;;25.05;59.03
63399;BME280;49533;-34.520;150.798;2023-02-12T07:41:19;99705.81;;;25.05;59.37
63399;BME280;49533;-34.520;150.798;2023-02-12T07:43:48;99705.81;;;25.05;59.37
63399;BME280;49533;-34.520;150.798;2023-02-12T07:46:19;99709.81;;;25.04;59.49
63399;BME280;49533;-34.520;150.798;2023-02-12T07:48:47;99710.59;;;25.05;59.13
63399;BME280;49533;-34.520;150.798;2023-02-12T07:51:16;99722.16;;;25.03;59.42
63399;BME280;49533;-34.520;150.798;2023-02-12T07:53:45;99711.03;;;25.03;59.11
63399;BME280;49533;-34.520;150.798;2023-02-12T07:56:15;99713.47;;;25.01;59.03
63399;BME280;49533;-34.520;150.798;2023-02-12T07:58:45;99722.22;;;25.00;59.49
63399;BME280;49533;-34.520;150.798;2023-02-12T08:01:21;99711.16;;;24.96;59.52
63399;BME280;49533;-34.520;150.798;2023-02-12T08:03:49;99719.88;;;24.98;59.58
63399;BME280;49533;-34.520;150.798;2023-02-12T08:06:21;99735.31;;;24.99;59.31
63399;BME280;49533;-34.520;150.798;2023-02-12T08:08:51;99727.00;;;24.99;59.50
63399;BME280;49533;-34.520;150.798;2023-02-12T08:11:18;99734.53;;;24.99;59.58
63399;BME280;49533;-34.520;150.798;2023-02-12T08:13:46;99735.72;;;24.98;59.65
63399;BME280;49533;-34.520;150.798;2023-02-12T08:16:16;99742.50;;;24.97;59.37
63399;BME280;49533;-34.520;150.798;2023-02-12T08:18:43;99744.16;;;24.94;59.71
63399;BME280;49533;-34.520;150.798;2023-02-12T08:21:13;99749.69;;;24.94;59.34
63399;BME280;49533;-34.520;150.798;2023-02-12T08:23:41;99760.81;;;24.94;59.61
63399;BME280;49533;-34.520;150.798;2023-02-12T08:26:12;99773.16;;;24.93;59.69
63399;BME280;49533;-34.520;150.798;2023-02-12T08:28:43;99768.78;;;24.92;59.30
63399;BME280;49533;-34.520;150.798;2023-02-12T08:31:14;99772.00;;;24.90;59.50
63399;BME280;49533;-34.520;150.798;2023-02-12T08:33:43;99772.41;;;24.89;59.39
63399;BME280;49533;-34.520;150.798;2023-02-12T08:36:13;99779.19;;;24.88;59.75
63399;BME280;49533;-34.520;150.798;2023-02-12T08:38:41;99790.31;;;24.88;59.78
63399;BME280;49533;-34.520;150.798;2023-02-12T08:41:12;99795.88;;;24.88;59.71
63399;BME280;49533;-34.520;150.798;2023-02-12T08:43:41;99791.50;;;24.87;60.31
63399;BME280;49533;-34.520;150.798;2023-02-12T08:46:11;99807.81;;;24.85;60.39
63399;BME280;49533;-34.520;150.798;2023-02-12T08:48:39;99810.56;;;24.85;60.09
63399;BME280;49533;-34.520;150.798;2023-02-12T08:51:11;99807.47;;;24.83;60.57
63399;BME280;49533;-34.520;150.798;2023-02-12T08:53:40;99820.53;;;24.82;60.45
63399;BME280;49533;-34.520;150.798;2023-02-12T08:56:08;99818.97;;;24.81;60.20
63399;BME280;49533;-34.520;150.798;2023-02-12T08:58:37;99830.16;;;24.78;60.77
63399;BME280;49533;-34.520;150.798;2023-02-12T09:01:10;99827.00;;;24.76;60.63
63399;BME280;49533;-34.520;150.798;2023-02-12T09:03:38;99827.00;;;24.76;60.64
63399;BME280;49533;-34.520;150.798;2023-02-12T09:06:06;99842.09;;;24.74;60.09
63399;BME280;49533;-34.520;150.798;2023-02-12T09:08:35;99845.31;;;24.73;60.27
63399;BME280;49533;-34.520;150.798;2023-02-12T09:11:06;99844.53;;;24.72;60.32
63399;BME280;49533;-34.520;150.798;2023-02-12T09:13:34;99850.09;;;24.72;60.17
63399;BME280;49533;-34.520;150.798;2023-02-12T09:16:03;99855.63;;;24.72;60.19
63399;BME280;49533;-34.520;150.798;2023-02-12T09:18:30;99855.25;;;24.70;60.07
63399;BME280;49533;-34.520;150.798;2023-02-12T09:21:03;99865.16;;;24.71;60.26
63399;BME280;49533;-34.520;150.798;2023-02-12T09:23:31;99870.34;;;24.69;60.06
63399;BME280;49533;-34.520;150.798;2023-02-12T09:25:58;99871.56;;;24.68;60.23
63399;BME280;49533;-34.520;150.798;2023-02-12T09:28:25;99889.84;;;24.66;59.92
63399;BME280;49533;-34.520;150.798;2023-02-12T09:30:53;99886.66;;;24.67;60.15
63399;BME280;49533;-34.520;150.798;2023-02-12T09:33:21;99887.06;;;24.66;60.17
63399;BME280;49533;-34.520;150.798;2023-02-12T09:35:48;99892.25;;;24.64;60.11
63399;BME280;49533;-34.520;150.798;2023-02-12T09:38:16;99901.03;;;24.62;60.25
63399;BME280;49533;-34.520;150.798;2023-02-12T09:44:06;99903.41;;;24.60;60.06
63399;BME280;49533;-34.520;150.798;2023-02-12T09:46:46;99917.72;;;24.59;60.03
63399;BME280;49533;-34.520;150.798;2023-02-12T09:52:16;99909.44;;;24.55;60.07
63399;BME280;49533;-34.520;150.798;2023-02-12T09:54:43;99918.97;;;24.54;60.07
63399;BME280;49533;-34.520;150.798;2023-02-12T09:57:24;99929.72;;;24.52;60.41
63399;BME280;49533;-34.520;150.798;2023-02-12T10:00:00;99933.69;;;24.51;60.40
63399;BME280;49533;-34.520;150.798;2023-02-12T10:02:29;99932.97;;;24.47;60.67
63399;BME280;49533;-34.520;150.798;2023-02-12T10:04:58;99946.84;;;24.43;60.81
63399;BME280;49533;-34.520;150.798;2023-02-12T10:10:46;99954.00;;;24.44;61.13
63399;BME280;49533;-34.520;150.798;2023-02-12T10:13:34;99954.81;;;24.45;61.01
63399;BME280;49533;-34.520;150.798;2023-02-12T10:17:02;99950.03;;;24.45;61.05
63399;BME280;49533;-34.520;150.798;2023-02-12T10:19:20;99957.16;;;24.43;61.18
63399;BME280;49533;-34.520;150.798;2023-02-12T10:22:00;99963.94;;;24.42;61.61
63399;BME280;49533;-34.520;150.798;2023-02-12T10:24:44;99969.09;;;24.40;61.50
63399;BME280;49533;-34.520;150.798;2023-02-12T10:27:18;99970.69;;;24.41;61.48
63399;BME280;49533;-34.520;150.798;2023-02-12T10:29:48;99970.28;;;24.39;61.71
63399;BME280;49533;-34.520;150.798;2023-02-12T10:32:26;99974.69;;;24.36;61.69
63399;BME280;49533;-34.520;150.798;2023-02-12T10:34:56;99976.28;;;24.37;61.84
63399;BME280;49533;-34.520;150.798;2023-02-12T10:40:23;99975.13;;;24.35;62.20
63399;BME280;49533;-34.520;150.798;2023-02-12T10:42:54;99970.75;;;24.34;61.79
63399;BME280;49533;-34.520;150.798;2023-02-12T10:45:37;99966.41;;;24.33;62.25
63399;BME280;49533;-34.520;150.798;2023-02-12T10:48:19;99970.03;;;24.29;62.38
63399;BME280;49533;-34.520;150.798;2023-02-12T10:50:56;99972.00;;;24.29;62.00
63399;BME280;49533;-34.520;150.798;2023-02-12T10:53:32;99976.34;;;24.30;62.09
63399;BME280;49533;-34.520;150.798;2023-02-12T10:56:20;99972.78;;;24.29;62.23
63399;BME280;49533;-34.520;150.798;2023-02-12T10:58:53;99974.38;;;24.30;62.19
63399;BME280;49533;-34.520;150.798;2023-02-12T11:01:40;99986.69;;;24.29;62.20
63399;BME280;49533;-34.520;150.798;2023-02-12T11:04:24;99987.47;;;24.30;62.53
63399;BME280;49533;-34.520;150.798;2023-02-12T11:06:59;99995.00;;;24.29;62.60
63399;BME280;49533;-34.520;150.798;2023-02-12T11:09:34;99996.63;;;24.27;62.53
63399;BME280;49533;-34.520;150.798;2023-02-12T11:12:18;99995.84;;;24.26;62.37
63399;BME280;49533;-34.520;150.798;2023-02-12T11:14:53;100000.97;;;24.28;62.46
63399;BME280;49533;-34.520;150.798;2023-02-12T11:17:32;100005.34;;;24.25;62.31
63399;BME280;49533;-34.520;150.798;2023-02-12T11:20:19;100006.19;;;24.22;62.54
63399;BME280;49533;-34.520;150.798;2023-02-12T11:22:59;100013.72;;;24.22;62.62
63399;BME280;49533;-34.520;150.798;2023-02-12T11:25:29;100010.94;;;24.22;62.71
63399;BME280;49533;-34.520;150.798;2023-02-12T11:28:16;100014.19;;;24.17;62.89
63399;BME280;49533;-34.520;150.798;2023-02-12T11:30:54;100010.63;;;24.16;62.48
63399;BME280;49533;-34.520;150.798;2023-02-12T11:33:28;100020.09;;;24.19;62.96
63399;BME280;49533;-34.520;150.798;2023-02-12T11:35:57;100018.13;;;24.19;62.60
63399;BME280;49533;-34.520;150.798;2023-02-12T11:38:29;100014.19;;;24.13;62.59
63399;BME280;49533;-34.520;150.798;2023-02-12T11:41:53;100019.00;;;24.09;63.14
63399;BME280;49533;-34.520;150.798;2023-02-12T11:43:53;100013.84;;;24.07;63.08
63399;BME280;49533;-34.520;150.798;2023-02-12T11:46:26;100017.06;;;24.06;62.94
63399;BME280;49533;-34.520;150.798;2023-02-12T11:48:56;100016.63;;;24.07;62.83
63399;BME280;49533;-34.520;150.798;2023-02-12T11:51:35;100012.69;;;24.05;62.82
63399;BME280;49533;-34.520;150.798;2023-02-12T11:54:14;100012.69;;;24.05;62.81
63399;BME280;49533;-34.520;150.798;2023-02-12T11:56:45;100007.97;;;24.02;62.89
63399;BME280;49533;-34.520;150.798;2023-02-12T12:02:29;100006.81;;;23.99;62.93
63399;BME280;49533;-34.520;150.798;2023-02-12T12:05:11;100008.81;;;23.99;63.04
63399;BME280;49533;-34.520;150.798;2023-02-12T12:07:44;100007.22;;;23.98;62.91
63399;BME280;49533;-34.520;150.798;2023-02-12T12:10:22;100006.47;;;23.94;63.52
63399;BME280;49533;-34.520;150.798;2023-02-12T12:12:56;100001.69;;;23.94;63.47
63399;BME280;49533;-34.520;150.798;2023-02-12T12:15:32;99999.34;;;23.93;63.60
63399;BME280;49533;-34.520;150.798;2023-02-12T12:18:43;100000.53;;;23.92;63.38
63399;BME280;49533;-34.520;150.798;2023-02-12T12:21:31;99993.00;;;23.92;63.34
63399;BME280;49533;-34.520;150.798;2023-02-12T12:24:10;99995.00;;;23.92;63.46
63399;BME280;49533;-34.520;150.798;2023-02-12T12:26:43;99995.38;;;23.90;63.47
63399;BME280;49533;-34.520;150.798;2023-02-12T12:29:20;99997.38;;;23.90;63.29
63399;BME280;49533;-34.520;150.798;2023-02-12T12:31:53;99995.38;;;23.90;63.19
63399;BME280;49533;-34.520;150.798;2023-02-12T12:34:24;99994.22;;;23.91;63.49
63399;BME280;49533;-34.520;150.798;2023-02-12T12:37:33;99996.97;;;23.91;63.49
63399;BME280;49533;-34.520;150.798;2023-02-12T12:40:13;99987.50;;;23.89;63.50
63399;BME280;49533;-34.520;150.798;2023-02-12T12:43:06;99985.91;;;23.87;63.22
63399;BME280;49533;-34.520;150.798;2023-02-12T12:48:44;99982.34;;;23.87;63.32
63399;BME280;49533;-34.520;150.798;2023-02-12T12:51:37;99971.69;;;23.85;63.44
63399;BME280;49533;-34.520;150.798;2023-02-12T12:54:25;99972.13;;;23.80;63.62
63399;BME280;49533;-34.520;150.798;2023-02-12T12:57:14;99960.66;;;23.78;63.77
63399;BME280;49533;-34.520;150.798;2023-02-12T12:59:55;99969.34;;;23.80;63.57
63399;BME280;49533;-34.520;150.798;2023-02-12T13:05:57;99973.72;;;23.78;63.66
63399;BME280;49533;-34.520;150.798;2023-02-12T13:08:48;99974.91;;;23.77;63.62
63399;BME280;49533;-34.520;150.798;2023-02-12T13:11:38;99972.13;;;23.77;63.64
63399;BME280;49533;-34.520;150.798;2023-02-12T13:14:34;99960.31;;;23.73;63.88
63399;BME280;49533;-34.520;150.798;2023-02-12T13:17:17;99962.28;;;23.72;63.71
63399;BME280;49533;-34.520;150.798;2023-02-12T13:20:05;99952.00;;;23.73;63.85
63399;BME280;49533;-34.520;150.798;2023-02-12T13:22:46;99952.34;;;23.71;63.78
63399;BME280;49533;-34.520;150.798;2023-02-12T13:25:37;99948.03;;;23.70;63.74
63399;BME280;49533;-34.520;150.798;2023-02-12T13:28:12;99953.56;;;23.70;63.71
63399;BME280;49533;-34.520;150.798;2023-02-12T13:30:45;99942.47;;;23.66;64.13
63399;BME280;49533;-34.520;150.798;2023-02-12T13:33:19;99942.91;;;23.65;63.93
63399;BME280;49533;-34.520;150.798;2023-02-12T13:35:52;99943.72;;;23.62;63.84
63399;BME280;49533;-34.520;150.798;2023-02-12T13:38:25;99937.78;;;23.63;63.84